Terminal Aerodrome Forecast
Issued by NWS Mt. Holly, NJ

Home | Current Version | Previous Version | Text Only | Print | Product List | Glossary On
Versions: 1 2 3 4 5 6 7 8 9 10 11 12 13 14 15 16 17 18 19 20 21 22 23 24 25
000
FTUS41 KPHI 240707 AAA
TAFRDG
TAF AMD
KRDG 240707Z 2407/2506 14010KT 6SM -SHRA OVC010
      TEMPO 2407/2411 4SM SHRA OVC006
     FM241200 VRB04KT 5SM BR OVC010
     FM241400 31005KT P6SM BKN025
     FM241700 32005KT P6SM BKN050
     FM242100 33004KT P6SM SCT250=

USA.gov is the U.S. government's official web portal to all federal, state and local government web resources and services.